Time;durP1;ratioP1;P1;durP2;ratioP2;P2;SDS_P1;SDS_P2;PMS_P1;PMS_P2;Temp;Humidity;BMP_temperature;BMP_pressure;BME280_temperature;BME280_humidity;BME280_pressure;Samples;Min_cycle;Max_cycle;Signal;HPM_P1;HPM_P2
2022/05/16 00:00:01;;;;;;;8.83;6.27;;;16.60;79.40;;;;;;5012902;28;20192;-66
2022/05/16 00:02:26;;;;;;;6.30;5.60;;;16.60;79.60;;;;;;5020170;28;20247;-66
2022/05/16 00:04:52;;;;;;;6.27;5.67;;;16.60;79.70;;;;;;5033067;28;20340;-66
2022/05/16 00:07:20;;;;;;;6.43;5.83;;;16.50;79.90;;;;;;5009909;28;20223;-66
2022/05/16 00:09:46;;;;;;;6.07;5.53;;;16.50;80.10;;;;;;5011566;28;20192;-66
2022/05/16 00:12:13;;;;;;;6.53;5.27;;;16.50;80.30;;;;;;4996341;28;20189;-67
2022/05/16 00:14:41;;;;;;;9.30;5.33;;;16.40;80.40;;;;;;4996491;28;20284;-67
2022/05/16 00:17:07;;;;;;;6.67;5.93;;;16.30;80.40;;;;;;5013678;28;20180;-67
2022/05/16 00:19:33;;;;;;;6.97;5.53;;;16.30;80.40;;;;;;5015947;28;20259;-67
2022/05/16 00:21:59;;;;;;;6.03;5.43;;;16.30;80.40;;;;;;5015786;28;20279;-67
2022/05/16 00:24:28;;;;;;;6.40;5.40;;;16.30;80.50;;;;;;4999675;28;20287;-67
2022/05/16 00:26:55;;;;;;;5.90;5.30;;;16.30;80.60;;;;;;5011744;28;20239;-67
2022/05/16 00:29:21;;;;;;;7.93;5.90;;;16.20;80.70;;;;;;4996393;28;20231;-67
2022/05/16 00:31:47;;;;;;;8.70;6.60;;;16.20;80.80;;;;;;5013846;28;20176;-67
2022/05/16 00:34:13;;;;;;;6.27;5.33;;;16.20;80.90;;;;;;4999381;28;20670;-67
2022/05/16 00:36:38;;;;;;;6.80;6.20;;;16.20;80.90;;;;;;5015933;28;20181;-66
2022/05/16 00:39:04;;;;;;;7.47;5.93;;;16.10;81.00;;;;;;5016130;28;20183;-66
2022/05/16 00:41:30;;;;;;;6.63;5.83;;;16.10;81.00;;;;;;4998978;28;20236;-66
2022/05/16 00:43:59;;;;;;;10.30;5.47;;;16.10;81.10;;;;;;5021082;28;20192;-66
2022/05/16 00:46:30;;;;;;;5.70;5.23;;;16.10;81.30;;;;;;5048413;28;20184;-66
2022/05/16 00:48:57;;;;;;;6.40;5.30;;;16.10;81.50;;;;;;5014197;28;20299;-66
2022/05/16 00:51:43;;;;;;;7.97;5.87;;;16.00;81.60;;;;;;5008905;28;20215;-66
2022/05/16 00:54:14;;;;;;;6.57;5.97;;;16.00;81.60;;;;;;5015269;28;20175;-66
2022/05/16 00:56:41;;;;;;;6.10;5.50;;;16.00;81.60;;;;;;5048028;28;20211;-66
2022/05/16 00:59:07;;;;;;;6.03;5.43;;;15.90;81.60;;;;;;5016380;28;20160;-66
2022/05/16 01:07:03;;;;;;;8.63;6.33;;;15.80;81.70;;;;;;5029237;28;20282;-65
2022/05/16 01:09:30;;;;;;;6.53;6.03;;;15.80;81.80;;;;;;4998326;28;20194;-65
2022/05/16 01:11:55;;;;;;;6.73;6.13;;;15.80;81.90;;;;;;5007862;28;20196;-66
2022/05/16 01:14:51;;;;;;;8.27;6.43;;;15.70;82.00;;;;;;5004233;28;20188;-66
2022/05/16 01:17:17;;;;;;;6.33;5.70;;;15.70;82.10;;;;;;4994114;28;20207;-66
2022/05/16 01:19:43;;;;;;;7.10;6.20;;;15.70;82.10;;;;;;5011209;28;20199;-66
2022/05/16 01:22:35;;;;;;;8.43;5.83;;;15.70;82.10;;;;;;5010071;28;20189;-66
2022/05/16 01:25:19;;;;;;;7.47;6.10;;;15.70;82.20;;;;;;5009218;28;20322;-66
2022/05/16 01:27:55;;;;;;;6.77;6.17;;;15.60;82.20;;;;;;5014900;28;20215;-66
2022/05/16 01:30:32;;;;;;;7.10;6.50;;;15.60;82.30;;;;;;4998119;28;20283;-66
2022/05/16 01:32:58;;;;;;;6.70;6.10;;;15.60;82.40;;;;;;4995217;28;20227;-66
2022/05/16 01:35:26;;;;;;;7.00;6.40;;;15.50;82.40;;;;;;5011546;28;20177;-66
2022/05/16 01:40:37;;;;;;;6.57;5.97;;;15.50;82.50;;;;;;5009854;28;20266;-66
2022/05/16 01:43:03;;;;;;;7.00;6.37;;;15.50;82.60;;;;;;4998288;28;20202;-65
2022/05/16 01:45:29;;;;;;;8.83;6.60;;;15.40;82.60;;;;;;5015447;28;20218;-65
2022/05/16 01:47:54;;;;;;;7.63;6.93;;;15.40;82.70;;;;;;5037410;28;20244;-65
2022/05/16 01:50:20;;;;;;;6.60;6.10;;;15.40;82.80;;;;;;4998341;28;20192;-65
2022/05/16 01:52:46;;;;;;;6.47;5.97;;;15.40;82.80;;;;;;5035885;28;20180;-65
2022/05/16 01:55:12;;;;;;;7.00;5.73;;;15.40;82.80;;;;;;5030586;28;20188;-65
2022/05/16 01:57:40;;;;;;;6.80;6.20;;;15.30;82.90;;;;;;5014435;28;20215;-65
2022/05/16 02:00:09;;;;;;;6.80;6.10;;;15.30;82.90;;;;;;5030230;28;20192;-65
2022/05/16 02:02:35;;;;;;;7.10;6.40;;;15.40;83.10;;;;;;5014197;28;20196;-65
2022/05/16 02:05:01;;;;;;;6.90;6.20;;;15.30;83.10;;;;;;4997904;28;20180;-65
2022/05/16 02:07:27;;;;;;;6.83;6.23;;;15.30;83.10;;;;;;4997944;28;20214;-65
2022/05/16 02:09:53;;;;;;;6.73;6.13;;;15.30;83.10;;;;;;4997817;28;20179;-65
2022/05/16 02:12:19;;;;;;;8.47;5.93;;;15.30;83.20;;;;;;5008448;28;20184;-65
2022/05/16 02:14:45;;;;;;;8.13;7.17;;;15.30;83.20;;;;;;5011007;28;20173;-65
2022/05/16 02:17:11;;;;;;;6.23;5.70;;;15.30;83.30;;;;;;4993357;28;20189;-65
2022/05/16 02:19:36;;;;;;;7.10;6.50;;;15.30;83.20;;;;;;4994442;28;20184;-65
2022/05/16 02:24:46;;;;;;;7.87;6.30;;;15.20;83.10;;;;;;5018736;28;20191;-65
2022/05/16 02:27:18;;;;;;;6.80;6.20;;;15.20;83.20;;;;;;5013601;28;20215;-65
2022/05/16 02:29:44;;;;;;;10.30;5.93;;;15.10;83.20;;;;;;5014326;28;20291;-64
2022/05/16 02:32:12;;;;;;;7.10;6.00;;;15.10;83.20;;;;;;5013563;28;20182;-64
2022/05/16 02:34:39;;;;;;;10.73;6.10;;;15.10;83.30;;;;;;5012992;28;20202;-64
2022/05/16 02:37:06;;;;;;;8.70;6.23;;;15.10;83.30;;;;;;4997657;28;20176;-64
2022/05/16 02:39:32;;;;;;;6.40;5.90;;;15.00;83.30;;;;;;4997172;28;20192;-65
2022/05/16 02:41:57;;;;;;;8.83;6.13;;;15.00;83.40;;;;;;4994693;28;20202;-65
2022/05/16 02:44:23;;;;;;;8.10;6.20;;;15.00;83.60;;;;;;4994107;28;20184;-64
2022/05/16 02:46:49;;;;;;;7.30;6.53;;;15.00;83.80;;;;;;5003663;28;20191;-64
2022/05/16 02:49:15;;;;;;;7.90;6.27;;;15.00;83.90;;;;;;4997090;28;20191;-64
2022/05/16 02:51:41;;;;;;;7.53;6.93;;;14.90;83.90;;;;;;4997155;28;20204;-65
2022/05/16 02:54:07;;;;;;;8.40;6.17;;;14.90;84.00;;;;;;5030308;28;20188;-65
2022/05/16 02:56:33;;;;;;;6.80;6.20;;;14.90;84.00;;;;;;5005214;28;20197;-65
2022/05/16 02:58:58;;;;;;;6.10;5.60;;;14.80;84.00;;;;;;5010236;28;20577;-65
2022/05/16 03:01:25;;;;;;;6.80;6.20;;;14.90;84.00;;;;;;4993575;28;20197;-64
2022/05/16 03:03:51;;;;;;;7.43;6.00;;;14.80;83.90;;;;;;5009975;28;20196;-64
2022/05/16 03:06:17;;;;;;;6.73;6.07;;;14.80;83.90;;;;;;4994571;28;20198;-64
2022/05/16 03:08:42;;;;;;;8.20;6.40;;;14.80;83.90;;;;;;4993527;28;20240;-63
2022/05/16 03:11:08;;;;;;;7.37;6.13;;;14.80;84.00;;;;;;5008231;28;20222;-63
2022/05/16 03:13:35;;;;;;;7.67;6.90;;;14.80;84.00;;;;;;4996703;28;20196;-63
2022/05/16 03:16:01;;;;;;;7.53;6.53;;;14.80;84.10;;;;;;5011098;28;20181;-63
2022/05/16 03:18:31;;;;;;;7.73;6.60;;;14.80;84.10;;;;;;5011819;28;20246;-63
2022/05/16 03:20:57;;;;;;;7.57;6.87;;;14.80;84.10;;;;;;5012958;28;20202;-63
2022/05/16 03:23:24;;;;;;;7.57;6.87;;;14.80;84.10;;;;;;5028132;28;20191;-63
2022/05/16 03:25:50;;;;;;;9.70;7.20;;;14.80;84.10;;;;;;5012919;28;20249;-64
2022/05/16 03:28:16;;;;;;;7.13;6.43;;;14.80;84.30;;;;;;4996693;28;20208;-64
2022/05/16 03:30:42;;;;;;;7.13;6.43;;;14.70;84.40;;;;;;5016118;28;20227;-64
2022/05/16 03:33:08;;;;;;;7.83;7.03;;;14.70;84.40;;;;;;5032973;28;20227;-64
2022/05/16 03:35:34;;;;;;;7.27;6.63;;;14.80;84.50;;;;;;5000247;28;20188;-64
2022/05/16 03:38:00;;;;;;;8.57;6.63;;;14.70;84.60;;;;;;5016236;28;20192;-64
2022/05/16 03:40:45;;;;;;;7.23;6.60;;;14.70;84.60;;;;;;5016635;28;20295;-64
2022/05/16 03:43:15;;;;;;;6.73;6.13;;;14.70;84.60;;;;;;4999592;28;20192;-63
2022/05/16 03:45:41;;;;;;;7.57;6.97;;;14.70;84.60;;;;;;5001836;28;20195;-63
2022/05/16 03:48:07;;;;;;;7.33;6.40;;;14.70;84.60;;;;;;5029622;28;20287;-63
2022/05/16 03:50:34;;;;;;;7.97;6.67;;;14.70;84.60;;;;;;5016021;28;20183;-64
2022/05/16 03:53:01;;;;;;;7.43;6.83;;;14.70;84.70;;;;;;5028490;28;20432;-64
2022/05/16 03:55:29;;;;;;;7.87;7.07;;;14.70;84.70;;;;;;5015769;28;20189;-63
2022/05/16 03:57:54;;;;;;;7.50;6.80;;;14.60;84.70;;;;;;5016534;28;20188;-63
2022/05/16 04:00:20;;;;;;;8.10;7.30;;;14.70;84.80;;;;;;5033036;28;20261;-63
2022/05/16 04:02:46;;;;;;;8.10;6.90;;;14.70;84.80;;;;;;5016235;28;20188;-63
2022/05/16 04:05:18;;;;;;;7.40;6.80;;;14.70;84.80;;;;;;5016400;28;20196;-62
2022/05/16 04:07:44;;;;;;;10.10;7.10;;;14.70;85.00;;;;;;5013538;28;20200;-62
2022/05/16 04:10:11;;;;;;;7.70;6.73;;;14.70;85.10;;;;;;5014528;28;20194;-63
2022/05/16 04:12:37;;;;;;;8.63;6.90;;;14.70;85.10;;;;;;5024033;28;20196;-63
2022/05/16 04:15:04;;;;;;;8.20;7.50;;;14.70;85.10;;;;;;5030893;28;20193;-64
2022/05/16 04:17:30;;;;;;;9.23;7.03;;;14.70;85.20;;;;;;5014140;28;20222;-64
2022/05/16 04:19:55;;;;;;;11.33;8.40;;;14.70;85.20;;;;;;4998363;28;20216;-64
2022/05/16 04:22:21;;;;;;;9.27;7.67;;;14.70;85.20;;;;;;5014170;28;20219;-64
2022/05/16 04:24:47;;;;;;;8.20;6.67;;;14.70;85.20;;;;;;4998327;28;20276;-64
2022/05/16 04:27:13;;;;;;;8.40;7.60;;;14.70;85.20;;;;;;5014998;28;20347;-65
2022/05/16 04:29:38;;;;;;;8.30;7.50;;;14.70;85.20;;;;;;5015283;28;20215;-65
2022/05/16 04:32:05;;;;;;;9.77;7.63;;;14.70;85.30;;;;;;5015909;28;20196;-65
2022/05/16 04:34:30;;;;;;;7.73;7.00;;;14.70;85.50;;;;;;5016431;28;20192;-65
2022/05/16 04:36:56;;;;;;;8.13;6.80;;;14.70;85.70;;;;;;5030671;28;20209;-64
2022/05/16 04:39:22;;;;;;;7.53;6.83;;;14.80;85.80;;;;;;5012010;28;20247;-64
2022/05/16 04:44:38;;;;;;;9.37;8.03;;;14.80;86.00;;;;;;5038993;28;20234;-63
2022/05/16 04:47:08;;;;;;;9.27;7.60;;;14.80;85.90;;;;;;5027703;28;20332;-63
2022/05/16 04:49:34;;;;;;;8.70;7.53;;;14.80;85.90;;;;;;4997258;28;20274;-63
2022/05/16 04:52:00;;;;;;;9.50;8.57;;;14.80;85.90;;;;;;4996626;28;20249;-63
2022/05/16 04:54:26;;;;;;;9.00;7.80;;;14.80;85.90;;;;;;5027513;28;20189;-63
2022/05/16 04:56:53;;;;;;;8.60;7.53;;;14.90;85.90;;;;;;4996775;28;20192;-63
2022/05/16 04:59:19;;;;;;;7.40;6.67;;;14.90;85.90;;;;;;5012427;28;20187;-63
2022/05/16 05:01:46;;;;;;;7.53;6.83;;;14.90;86.00;;;;;;5031800;28;20227;-63
2022/05/16 05:04:12;;;;;;;8.53;7.63;;;15.00;86.10;;;;;;5033050;28;20183;-63
2022/05/16 05:06:37;;;;;;;7.90;7.30;;;15.00;86.10;;;;;;5049387;28;20215;-63
2022/05/16 05:09:03;;;;;;;11.20;7.10;;;15.00;86.10;;;;;;5016847;28;20203;-63
2022/05/16 05:14:32;;;;;;;8.37;7.37;;;15.00;85.90;;;;;;5040860;28;20230;-64
2022/05/16 05:16:58;;;;;;;8.27;7.47;;;15.10;85.90;;;;;;5022958;28;20192;-64
2022/05/16 05:19:24;;;;;;;8.60;7.07;;;15.10;85.80;;;;;;5022725;28;20184;-64
2022/05/16 05:21:50;;;;;;;8.83;7.67;;;15.20;85.80;;;;;;5026052;28;20187;-63
2022/05/16 05:24:16;;;;;;;8.93;8.03;;;15.20;85.90;;;;;;5014490;28;20199;-64
2022/05/16 05:26:43;;;;;;;8.33;7.53;;;15.20;85.90;;;;;;5048543;28;20198;-63
2022/05/16 05:29:11;;;;;;;9.17;8.20;;;15.30;85.80;;;;;;5030595;28;20211;-64
2022/05/16 05:31:37;;;;;;;8.40;7.57;;;15.30;85.80;;;;;;5027390;28;20194;-63
2022/05/16 05:34:03;;;;;;;8.60;7.73;;;15.30;85.80;;;;;;5049152;28;20187;-63
2022/05/16 05:36:29;;;;;;;7.87;7.13;;;15.30;85.70;;;;;;5028431;28;20237;-64
2022/05/16 05:38:56;;;;;;;8.53;7.83;;;15.30;85.50;;;;;;5011817;28;20180;-63
2022/05/16 05:41:23;;;;;;;8.43;6.97;;;15.40;85.40;;;;;;5011875;28;20260;-65
2022/05/16 05:43:49;;;;;;;7.67;6.97;;;15.40;85.50;;;;;;5025558;28;20191;-63
2022/05/16 05:46:18;;;;;;;7.87;6.70;;;15.50;85.50;;;;;;5014750;28;20183;-64
2022/05/16 05:48:45;;;;;;;8.27;7.50;;;15.50;85.40;;;;;;5027180;28;20208;-65
2022/05/16 05:51:12;;;;;;;8.73;7.83;;;15.60;85.40;;;;;;5061022;28;20179;-65
2022/05/16 05:53:38;;;;;;;7.67;6.97;;;15.50;85.40;;;;;;5062325;28;20182;-65
2022/05/16 05:56:07;;;;;;;9.00;7.87;;;15.60;85.30;;;;;;4998812;28;20190;-65
2022/05/16 05:58:33;;;;;;;8.77;7.87;;;15.60;85.40;;;;;;5024641;28;20194;-63
2022/05/16 06:01:00;;;;;;;8.27;7.47;;;15.70;85.50;;;;;;5049316;28;20201;-64
2022/05/16 06:03:26;;;;;;;8.57;7.10;;;15.70;85.50;;;;;;5032758;28;20194;-63
2022/05/16 06:05:52;;;;;;;13.27;7.63;;;15.70;85.40;;;;;;5032609;28;20287;-63
2022/05/16 06:08:17;;;;;;;8.60;7.60;;;15.70;85.40;;;;;;5049302;28;20205;-63
2022/05/16 06:10:43;;;;;;;8.77;7.40;;;15.80;85.40;;;;;;5016129;28;20182;-63
2022/05/16 06:13:09;;;;;;;7.67;7.07;;;15.80;85.00;;;;;;5006443;28;20199;-64
2022/05/16 06:15:35;;;;;;;7.90;7.20;;;15.90;84.90;;;;;;5014727;28;20190;-64
2022/05/16 06:18:01;;;;;;;8.93;8.03;;;15.90;84.80;;;;;;5048668;28;20260;-65
2022/05/16 06:20:27;;;;;;;8.70;7.80;;;16.00;84.70;;;;;;5032294;28;20194;-62
2022/05/16 06:22:54;;;;;;;9.37;7.33;;;16.00;84.60;;;;;;5047652;28;20191;-62
2022/05/16 06:25:39;;;;;;;10.10;7.93;;;16.10;84.40;;;;;;5014785;28;20210;-63
2022/05/16 06:28:14;;;;;;;9.60;8.63;;;16.20;84.20;;;;;;5030354;28;20211;-63
2022/05/16 06:30:43;;;;;;;8.90;8.00;;;16.30;83.70;;;;;;5032672;28;20195;-63
2022/05/16 06:33:09;;;;;;;9.67;7.97;;;16.30;83.40;;;;;;5030768;28;20218;-63
2022/05/16 06:35:36;;;;;;;9.03;7.87;;;16.40;82.90;;;;;;5014058;28;20191;-63
2022/05/16 06:38:16;;;;;;;7.90;7.13;;;16.50;82.90;;;;;;5047424;28;20241;-63
2022/05/16 06:40:46;;;;;;;10.87;7.63;;;16.60;82.80;;;;;;5029824;28;20234;-63
2022/05/16 06:43:12;;;;;;;8.10;6.97;;;16.60;82.60;;;;;;5031150;28;20183;-63
2022/05/16 06:45:38;;;;;;;10.27;7.80;;;16.70;82.30;;;;;;5064183;28;20214;-64
2022/05/16 06:48:05;;;;;;;11.30;8.60;;;16.80;82.10;;;;;;5032103;28;20203;-63
2022/05/16 06:50:32;;;;;;;9.23;7.70;;;16.80;81.90;;;;;;5047379;28;20229;-63
2022/05/16 06:52:59;;;;;;;10.30;7.70;;;16.90;81.80;;;;;;5040996;28;20178;-63
2022/05/16 06:55:25;;;;;;;8.43;7.53;;;17.00;81.80;;;;;;5020919;28;20184;-63
2022/05/16 06:57:51;;;;;;;9.27;7.20;;;17.00;81.60;;;;;;5025040;28;20195;-64
2022/05/16 07:00:17;;;;;;;7.83;7.03;;;17.10;81.60;;;;;;5014320;28;20199;-63
2022/05/16 07:02:43;;;;;;;9.23;7.17;;;17.20;81.40;;;;;;5014971;28;20221;-64
2022/05/16 07:05:09;;;;;;;8.23;6.57;;;17.20;80.30;;;;;;5054311;28;20194;-65
2022/05/16 07:07:35;;;;;;;7.73;7.10;;;17.30;79.90;;;;;;5060431;28;20211;-64
2022/05/16 07:10:02;;;;;;;7.70;6.97;;;17.40;80.10;;;;;;5019631;28;20236;-63
2022/05/16 07:12:28;;;;;;;7.70;6.90;;;17.50;80.30;;;;;;5026284;28;20183;-64
2022/05/16 07:14:54;;;;;;;8.37;6.03;;;17.70;79.10;;;;;;5055064;28;20282;-63
2022/05/16 07:17:20;;;;;;;8.13;7.00;;;17.70;78.70;;;;;;5034211;28;20192;-64
2022/05/16 07:19:46;;;;;;;12.00;7.07;;;17.80;77.90;;;;;;5035000;28;20207;-63
2022/05/16 07:22:24;;;;;;;7.23;6.50;;;18.00;77.30;;;;;;5038223;28;20190;-64
2022/05/16 07:24:51;;;;;;;7.50;6.30;;;18.20;76.90;;;;;;5036333;28;20190;-63
2022/05/16 07:30:06;;;;;;;7.20;6.47;;;18.30;76.10;;;;;;5037529;28;20213;-63
2022/05/16 07:32:37;;;;;;;7.10;5.80;;;18.50;76.10;;;;;;5038183;28;20179;-64
2022/05/16 07:35:05;;;;;;;7.17;6.47;;;18.50;76.30;;;;;;5070843;28;20242;-64
2022/05/16 07:37:31;;;;;;;6.10;5.50;;;18.60;75.90;;;;;;5053758;28;20188;-64
2022/05/16 07:39:58;;;;;;;6.77;5.93;;;18.60;75.20;;;;;;5026640;28;20271;-63
2022/05/16 07:42:24;;;;;;;6.90;6.30;;;18.70;75.40;;;;;;5017599;28;20185;-63
2022/05/16 07:44:50;;;;;;;7.77;6.20;;;18.70;75.80;;;;;;5017194;28;20262;-63
2022/05/16 07:47:16;;;;;;;7.37;6.57;;;18.80;74.40;;;;;;5034022;28;20299;-63
2022/05/16 07:49:43;;;;;;;6.47;5.87;;;19.00;71.60;;;;;;5049229;28;20285;-63
2022/05/16 07:52:09;;;;;;;8.73;6.50;;;19.10;72.50;;;;;;5023911;28;20194;-63
2022/05/16 07:54:37;;;;;;;6.50;5.90;;;19.10;73.80;;;;;;5040662;28;20205;-63
2022/05/16 07:57:04;;;;;;;6.00;5.50;;;19.20;74.50;;;;;;5038292;28;20191;-63
2022/05/16 07:59:29;;;;;;;6.93;6.23;;;19.20;73.20;;;;;;5037729;28;20171;-63
2022/05/16 08:01:55;;;;;;;7.30;5.40;;;19.30;71.40;;;;;;5035682;28;20202;-63
2022/05/16 08:04:21;;;;;;;6.67;5.47;;;19.30;69.70;;;;;;5004714;28;20191;-64
2022/05/16 08:06:47;;;;;;;6.77;6.07;;;19.40;68.00;;;;;;5037010;28;20254;-64
2022/05/16 08:11:58;;;;;;;7.07;5.27;;;19.70;68.60;;;;;;5038968;28;20264;-64
2022/05/16 08:14:23;;;;;;;6.03;5.43;;;19.80;68.20;;;;;;5035512;28;20229;-64
2022/05/16 08:16:49;;;;;;;6.23;5.70;;;19.80;68.20;;;;;;5050472;28;20190;-64
2022/05/16 08:19:15;;;;;;;5.87;5.20;;;19.90;67.60;;;;;;5016538;28;20440;-64
2022/05/16 08:21:42;;;;;;;6.47;5.77;;;20.00;67.50;;;;;;5051132;28;20191;-64
2022/05/16 08:24:09;;;;;;;5.80;5.30;;;20.10;66.90;;;;;;5050270;28;20194;-62
2022/05/16 08:26:36;;;;;;;6.67;5.97;;;20.20;67.80;;;;;;5048973;28;20287;-63
2022/05/16 08:29:02;;;;;;;5.77;4.83;;;20.20;67.70;;;;;;5016937;28;20203;-63
2022/05/16 08:31:28;;;;;;;6.07;5.57;;;20.30;67.80;;;;;;5000760;28;20198;-64
2022/05/16 08:33:56;;;;;;;5.87;5.30;;;20.40;68.90;;;;;;5034703;28;20269;-63
2022/05/16 08:41:58;;;;;;;6.57;5.13;;;20.70;66.60;;;;;;5032714;28;20254;-63
2022/05/16 08:44:28;;;;;;;7.20;5.90;;;20.80;65.80;;;;;;5032261;28;20191;-63
2022/05/16 08:47:35;;;;;;;7.33;5.40;;;20.80;66.50;;;;;;5033392;28;20183;-63
2022/05/16 08:50:32;;;;;;;7.57;5.60;;;21.00;68.40;;;;;;4997698;28;20203;-63
2022/05/16 08:53:03;;;;;;;6.40;5.33;;;21.00;68.10;;;;;;4980888;28;20224;-63
2022/05/16 08:55:39;;;;;;;7.73;5.50;;;21.10;66.50;;;;;;5034094;28;20183;-63
2022/05/16 08:58:23;;;;;;;7.23;5.67;;;21.20;63.00;;;;;;5013939;28;20238;-63
2022/05/16 09:00:51;;;;;;;5.80;5.30;;;21.20;62.60;;;;;;5029004;28;20190;-63
2022/05/16 09:03:39;;;;;;;5.23;4.73;;;21.20;63.60;;;;;;5032503;28;20186;-63
2022/05/16 09:06:13;;;;;;;6.77;5.70;;;21.30;63.90;;;;;;5032153;28;20193;-63
2022/05/16 09:09:02;;;;;;;5.87;5.27;;;21.40;63.70;;;;;;5032340;28;20211;-63
2022/05/16 09:11:41;;;;;;;6.77;5.27;;;21.50;61.20;;;;;;5032164;28;20187;-64
2022/05/16 09:14:16;;;;;;;6.30;5.53;;;21.70;61.70;;;;;;5031856;28;20179;-64
2022/05/16 09:16:57;;;;;;;6.27;5.20;;;21.80;64.10;;;;;;5031872;28;20200;-64
2022/05/16 09:19:51;;;;;;;6.07;5.43;;;21.80;65.20;;;;;;5033603;28;20286;-63
2022/05/16 09:22:28;;;;;;;5.77;5.20;;;21.90;64.50;;;;;;5032601;28;20236;-64
2022/05/16 09:25:01;;;;;;;5.77;5.27;;;22.00;59.50;;;;;;5033277;28;20171;-62
2022/05/16 09:30:27;;;;;;;5.70;4.87;;;22.20;60.90;;;;;;5012821;28;20276;-63
2022/05/16 09:33:26;;;;;;;8.47;5.03;;;22.20;61.20;;;;;;5012529;28;20180;-63
2022/05/16 09:36:06;;;;;;;6.57;4.77;;;22.30;61.20;;;;;;5021702;28;20194;-63
2022/05/16 09:38:32;;;;;;;5.83;4.90;;;22.40;60.80;;;;;;5031878;28;20202;-63
2022/05/16 09:41:01;;;;;;;7.60;6.07;;;22.50;62.40;;;;;;5020783;28;20239;-63
2022/05/16 09:43:37;;;;;;;6.27;5.67;;;22.60;63.30;;;;;;5014326;28;20247;-64
2022/05/16 09:46:28;;;;;;;7.50;5.07;;;22.70;63.50;;;;;;5013403;28;20172;-63
2022/05/16 09:49:06;;;;;;;5.30;4.80;;;22.80;62.70;;;;;;5022248;28;20215;-63
2022/05/16 09:51:59;;;;;;;6.10;5.47;;;22.80;59.10;;;;;;5032945;28;20182;-64
2022/05/16 09:54:28;;;;;;;5.30;4.80;;;22.90;59.50;;;;;;5028944;28;20191;-63
2022/05/16 09:57:06;;;;;;;7.77;5.97;;;22.90;59.40;;;;;;5015542;28;20168;-63
2022/05/16 09:59:52;;;;;;;6.33;5.20;;;23.00;58.10;;;;;;5032891;28;20209;-63
2022/05/16 10:02:18;;;;;;;5.73;5.07;;;23.00;57.10;;;;;;5032855;28;20171;-63
2022/05/16 10:04:46;;;;;;;7.43;5.00;;;23.20;58.70;;;;;;5065776;28;20316;-64
2022/05/16 10:07:12;;;;;;;5.50;5.00;;;23.30;60.00;;;;;;5065987;28;20175;-64
2022/05/16 10:09:46;;;;;;;5.90;5.33;;;23.30;59.20;;;;;;5065093;28;20190;-62
2022/05/16 10:12:16;;;;;;;5.20;4.70;;;23.40;57.80;;;;;;5031067;28;20175;-62
2022/05/16 10:14:42;;;;;;;5.00;4.57;;;23.50;55.90;;;;;;5031432;28;20226;-63
2022/05/16 10:17:12;;;;;;;5.30;4.47;;;23.50;56.80;;;;;;5032808;28;20179;-63
2022/05/16 10:19:40;;;;;;;5.47;4.37;;;23.60;57.40;;;;;;5063701;28;20233;-64
2022/05/16 10:22:17;;;;;;;5.97;5.10;;;23.60;56.70;;;;;;5030876;28;20194;-62
2022/05/16 10:24:52;;;;;;;5.13;4.60;;;23.70;59.30;;;;;;5031377;28;20193;-64
2022/05/16 10:27:31;;;;;;;4.70;4.30;;;23.80;58.30;;;;;;5029711;28;20270;-64
2022/05/16 10:30:00;;;;;;;5.83;4.60;;;23.90;59.30;;;;;;5012223;28;20282;-64
2022/05/16 10:35:32;;;;;;;4.37;3.97;;;24.00;59.80;;;;;;5012394;28;20198;-64
2022/05/16 10:38:02;;;;;;;4.90;4.33;;;24.10;60.10;;;;;;5016471;28;20249;-65
2022/05/16 10:40:45;;;;;;;5.00;4.60;;;24.20;59.40;;;;;;5023481;28;20239;-65
2022/05/16 10:43:54;;;;;;;6.57;5.00;;;24.20;58.20;;;;;;5016092;28;20218;-66
2022/05/16 10:46:30;;;;;;;8.00;5.40;;;24.30;57.00;;;;;;5012085;28;20187;-66
2022/05/16 10:49:04;;;;;;;5.67;5.10;;;24.40;56.70;;;;;;5017113;28;20246;-66
2022/05/16 10:51:39;;;;;;;6.07;4.10;;;24.50;58.50;;;;;;5030958;28;20209;-66
2022/05/16 10:54:12;;;;;;;6.97;5.00;;;24.60;57.40;;;;;;5031454;28;20229;-66
2022/05/16 10:57:00;;;;;;;5.13;4.63;;;24.70;56.80;;;;;;5028763;28;20195;-65
2022/05/16 10:59:31;;;;;;;5.57;4.40;;;24.80;57.60;;;;;;5063843;28;20241;-65
2022/05/16 11:02:16;;;;;;;5.70;5.20;;;24.80;57.30;;;;;;5031068;28;20289;-65
2022/05/16 11:05:12;;;;;;;4.50;4.10;;;24.90;57.00;;;;;;5063773;28;20198;-66
2022/05/16 11:07:56;;;;;;;7.30;4.40;;;25.10;55.40;;;;;;5032567;28;20229;-66
2022/05/16 11:10:38;;;;;;;4.87;4.47;;;25.10;51.80;;;;;;5064619;28;20209;-66
2022/05/16 11:13:11;;;;;;;5.40;4.40;;;25.20;56.10;;;;;;5031469;28;20191;-66
2022/05/16 11:15:56;;;;;;;6.13;4.70;;;25.40;56.40;;;;;;5030981;28;20237;-66
2022/05/16 11:18:32;;;;;;;7.43;5.17;;;25.50;55.60;;;;;;5031530;28;20194;-66
2022/05/16 11:21:07;;;;;;;5.00;4.50;;;25.70;56.60;;;;;;5052163;28;20237;-66
2022/05/16 11:23:38;;;;;;;4.50;4.10;;;25.80;53.80;;;;;;5021726;28;20198;-67
2022/05/16 11:26:23;;;;;;;9.23;5.33;;;26.00;55.80;;;;;;5031324;28;20222;-65
2022/05/16 11:29:17;;;;;;;7.43;4.47;;;26.30;54.00;;;;;;5029592;28;20219;-65
2022/05/16 11:31:58;;;;;;;6.43;5.03;;;26.40;52.10;;;;;;5030480;28;20196;-66
2022/05/16 11:34:43;;;;;;;4.37;3.97;;;26.60;52.70;;;;;;5031229;28;20254;-65
2022/05/16 11:37:49;;;;;;;5.40;4.67;;;26.60;52.50;;;;;;5031509;28;20178;-65
2022/05/16 11:40:31;;;;;;;5.77;4.40;;;26.70;52.60;;;;;;5030726;28;20235;-65
2022/05/16 11:43:20;;;;;;;4.50;3.90;;;26.90;54.00;;;;;;5012736;28;20226;-66
2022/05/16 11:46:08;;;;;;;5.80;4.63;;;27.00;53.60;;;;;;5040582;28;20266;-66
2022/05/16 11:48:54;;;;;;;5.83;4.50;;;27.30;49.90;;;;;;5030802;28;20218;-66
2022/05/16 11:51:43;;;;;;;5.83;4.70;;;27.50;50.20;;;;;;5031933;28;20191;-67
2022/05/16 11:54:12;;;;;;;8.90;4.77;;;27.80;49.50;;;;;;5030962;28;20238;-66
2022/05/16 12:02:29;;;;;;;4.57;4.10;;;29.00;48.60;;;;;;5035515;28;20221;-64
2022/05/16 12:05:09;;;;;;;5.07;4.47;;;29.50;47.70;;;;;;5033606;28;20217;-64
2022/05/16 12:07:35;;;;;;;6.93;4.37;;;29.90;47.50;;;;;;5016547;28;20246;-64
2022/05/16 12:10:15;;;;;;;4.87;4.37;;;30.40;45.90;;;;;;5047914;28;20206;-64
2022/05/16 12:12:44;;;;;;;6.73;4.00;;;30.90;45.50;;;;;;5059553;28;20191;-65
2022/05/16 12:15:28;;;;;;;4.67;4.17;;;31.50;44.20;;;;;;5019592;28;20261;-64
2022/05/16 12:17:57;;;;;;;4.73;4.27;;;32.10;43.10;;;;;;5046773;28;20194;-63
2022/05/16 12:20:58;;;;;;;4.93;4.10;;;32.50;42.10;;;;;;5013431;28;20227;-65
2022/05/16 12:23:47;;;;;;;5.10;4.13;;;32.90;41.20;;;;;;5014134;28;20202;-65
2022/05/16 12:26:29;;;;;;;7.60;4.83;;;33.10;35.70;;;;;;5046624;28;20192;-66
2022/05/16 12:29:11;;;;;;;5.77;4.00;;;33.00;36.30;;;;;;5013395;28;20291;-66
2022/05/16 12:31:49;;;;;;;6.17;4.40;;;32.90;37.80;;;;;;5015979;28;20164;-66
2022/05/16 12:34:29;;;;;;;7.47;4.37;;;32.60;38.40;;;;;;5014153;28;20236;-66
2022/05/16 12:37:00;;;;;;;5.13;4.10;;;32.30;39.70;;;;;;5014414;28;20191;-62
2022/05/16 12:39:38;;;;;;;6.00;4.47;;;32.00;38.70;;;;;;5014003;28;20223;-63
2022/05/16 12:42:25;;;;;;;4.47;4.07;;;31.50;38.10;;;;;;5020895;28;20206;-63
2022/05/16 12:45:01;;;;;;;5.10;4.33;;;31.10;40.40;;;;;;5034878;28;20225;-63
2022/05/16 12:47:55;;;;;;;7.73;4.47;;;30.70;40.00;;;;;;5033497;28;20201;-63
2022/05/16 12:50:46;;;;;;;6.77;4.43;;;30.20;41.60;;;;;;5033001;28;20183;-64
2022/05/16 12:53:35;;;;;;;4.93;4.03;;;29.80;41.80;;;;;;5045035;28;20179;-65
2022/05/16 12:56:13;;;;;;;8.60;5.40;;;29.50;41.10;;;;;;5014261;28;20212;-63
2022/05/16 12:58:55;;;;;;;5.73;4.90;;;29.00;45.40;;;;;;5046323;28;20214;-64
2022/05/16 13:01:24;;;;;;;5.10;4.60;;;28.60;42.60;;;;;;5045288;28;20294;-64
2022/05/16 13:04:08;;;;;;;4.80;4.30;;;28.20;44.90;;;;;;5065753;28;20195;-63
2022/05/16 13:06:44;;;;;;;6.27;4.70;;;28.00;44.70;;;;;;5033232;28;20171;-66
2022/05/16 13:09:10;;;;;;;4.80;4.30;;;27.80;44.80;;;;;;5033812;28;20203;-66
2022/05/16 13:11:51;;;;;;;4.93;4.43;;;27.30;46.00;;;;;;5032444;28;20183;-67
2022/05/16 13:14:34;;;;;;;6.87;4.50;;;27.10;46.50;;;;;;5065737;28;20166;-61
2022/05/16 13:17:10;;;;;;;5.73;4.53;;;27.00;46.80;;;;;;5019333;28;20199;-61
2022/05/16 13:19:43;;;;;;;5.83;4.80;;;26.80;47.50;;;;;;5014358;28;20231;-60
2022/05/16 13:22:18;;;;;;;5.17;4.77;;;26.70;47.20;;;;;;5025257;28;20278;-61
2022/05/16 13:24:45;;;;;;;5.57;4.60;;;26.50;47.30;;;;;;5032262;28;20179;-60
2022/05/16 13:30:04;;;;;;;6.07;4.60;;;26.20;49.10;;;;;;5033187;28;20264;-60
2022/05/16 13:32:31;;;;;;;5.10;4.70;;;26.20;48.80;;;;;;5031414;28;20178;-60
2022/05/16 13:35:02;;;;;;;4.47;4.03;;;26.20;50.70;;;;;;4999274;28;20171;-60
2022/05/16 13:37:38;;;;;;;5.30;4.90;;;26.20;52.00;;;;;;5032248;28;20186;-60
2022/05/16 13:40:07;;;;;;;9.37;4.77;;;26.20;54.00;;;;;;5027113;28;20227;-59
2022/05/16 13:42:37;;;;;;;8.43;5.30;;;26.20;55.10;;;;;;5014508;28;20255;-59
2022/05/16 13:45:04;;;;;;;5.07;4.53;;;26.10;54.80;;;;;;5016316;28;20253;-60
2022/05/16 13:47:32;;;;;;;5.53;4.40;;;26.00;54.10;;;;;;5031993;28;20175;-62